Crookhaven, Ireland
Current Conditions -  °F | °C
As of 1:30 PM on Wednesday 22 Oct 2014 (Local Time) from EIKY Reporting Station
Broken Clouds Broken Clouds  
Wind Chill: 57°   Ceiling: 2900
Heat Index: 57°   Visibility: 6mi
Dew Point: 48°   Wind: 15mph
Humidity: 72%   Direction: 240°WSW
Pressure: 30.24"   Gusts: NA
Location:  51.47°N, 9.73°W
Report Text: EIKY 221230Z 24013KT 9999 BKN029 14/09 Q1024
Loading
Personal Weather Stations






























Interactive Weather Map New forecast layout! Learn more

10-Day Weather Forecast

Advertisements
Track Severe Weather on mobile